Portland, Ohio
Current Conditions -  °F | °C
As of 9:35 PM on Thursday 20 Nov 2014 (Local Time) from K3I2 Reporting Station
Clear Clear  
Wind Chill: 27°   Ceiling: Unl
Heat Index: 27°   Visibility: 10mi
Dew Point: 18°   Wind: 0mph
Humidity: 69%   Direction: NA
Pressure: 30.24"   Gusts: NA
Location:  39°N, 81.8°W
Report Text: K3I2 210235Z AUTO 00000KT 10SM CLR M03/M08 A3024 RMK AO2
Loading
Personal Weather Stations






























Interactive Weather Map New forecast layout! Learn more

10-Day Weather Forecast

Advertisements
Track Severe Weather on mobile